createdAt,value
2019-03-25T00:00:39.004Z,0.92
2019-03-25T00:01:39.632Z,0.45
2019-03-25T00:02:40.044Z,0.74
2019-03-25T00:03:39.854Z,1.39
2019-03-25T00:04:40.066Z,1.55
2019-03-25T00:05:40.678Z,1.58
2019-03-25T00:06:40.538Z,0.72
2019-03-25T00:07:40.692Z,0.42
2019-03-25T00:08:40.803Z,0.97
2019-03-25T00:09:41.226Z,0.81
2019-03-25T00:10:41.321Z,0.73
2019-03-25T00:11:41.798Z,0.72
2019-03-25T00:12:41.951Z,0.34
2019-03-25T00:13:42.498Z,0.51
2019-03-25T00:14:43.002Z,0.80
2019-03-25T00:15:42.795Z,0.71
2019-03-25T00:16:43.208Z,0.62
2019-03-25T00:17:43.421Z,0.00
2019-03-25T00:18:43.748Z,0.00
2019-03-25T00:19:44.060Z,0.21
2019-03-25T00:20:44.332Z,0.11
2019-03-25T00:21:44.681Z,0.00
2019-03-25T00:22:45.017Z,0.60
2019-03-25T00:24:45.530Z,0.00
2019-03-25T00:25:46.033Z,0.35
2019-03-25T00:26:46.551Z,0.34
2019-03-25T00:27:46.580Z,0.75
2019-03-25T00:28:46.769Z,0.11
2019-03-25T00:29:46.795Z,1.42
2019-03-25T00:30:47.191Z,2.06
2019-03-25T00:31:47.504Z,1.21
2019-03-25T00:32:47.712Z,0.32
2019-03-25T00:33:47.929Z,1.24
2019-03-25T00:34:48.047Z,1.77
2019-03-25T00:35:48.245Z,1.58
2019-03-25T00:36:47.978Z,1.03
2019-03-25T00:37:48.361Z,1.29
2019-03-25T00:38:48.677Z,2.03
2019-03-25T00:39:48.282Z,1.66
2019-03-25T00:40:48.699Z,3.13
2019-03-25T00:41:48.596Z,2.57
2019-03-25T00:42:49.110Z,1.74
2019-03-25T00:43:49.460Z,1.32
2019-03-25T00:44:50.057Z,1.71
2019-03-25T00:45:50.157Z,2.49
2019-03-25T00:46:49.562Z,1.50
2019-03-25T00:47:50.357Z,1.05
2019-03-25T00:48:50.893Z,0.86
2019-03-25T00:49:50.807Z,2.05
2019-03-25T00:50:51.019Z,1.28
2019-03-25T00:51:51.528Z,1.13
2019-03-25T00:52:51.637Z,1.85
2019-03-25T00:53:51.591Z,1.87
2019-03-25T00:54:52.168Z,1.47
2019-03-25T00:55:52.269Z,2.11
2019-03-25T00:56:52.375Z,3.36
2019-03-25T00:57:52.494Z,3.05
2019-03-25T00:58:52.500Z,3.27
2019-03-25T00:59:52.632Z,2.40
2019-03-25T01:00:52.964Z,2.09
2019-03-25T01:01:53.023Z,1.96
2019-03-25T01:02:53.339Z,1.35
2019-03-25T01:03:53.347Z,2.70
2019-03-25T01:04:54.387Z,1.62
2019-03-25T01:05:54.281Z,2.54
2019-03-25T01:06:54.800Z,1.60
2019-03-25T01:07:54.814Z,1.23
2019-03-25T01:08:54.501Z,3.06
2019-03-25T01:09:55.023Z,1.94
2019-03-25T01:10:55.343Z,3.42
2019-03-25T01:11:55.894Z,2.94
2019-03-25T01:12:55.971Z,2.44
2019-03-25T01:13:56.079Z,1.17
2019-03-25T01:14:56.190Z,4.51
2019-03-25T01:15:55.990Z,2.24
2019-03-25T01:16:56.304Z,2.40
2019-03-25T01:17:56.630Z,2.30
2019-03-25T01:18:57.237Z,2.01
2019-03-25T01:19:56.938Z,2.28
2019-03-25T01:20:57.349Z,1.52
2019-03-25T01:21:57.322Z,2.15
2019-03-25T01:22:57.677Z,1.70
2019-03-25T01:23:58.108Z,1.09
2019-03-25T01:25:02.177Z,0.83
2019-03-25T01:25:58.714Z,1.26
2019-03-25T01:26:59.232Z,0.66
2019-03-25T01:27:58.929Z,1.86
2019-03-25T01:28:59.456Z,1.35
2019-03-25T01:29:59.631Z,1.25
2019-03-25T01:30:59.664Z,1.10
2019-03-25T01:31:59.568Z,1.25
2019-03-25T01:32:59.975Z,1.77
2019-03-25T01:34:00.418Z,1.32
2019-03-25T01:35:01.023Z,1.23
2019-03-25T01:36:01.131Z,2.46
2019-03-25T01:37:00.936Z,1.62
2019-03-25T01:38:01.249Z,1.43
2019-03-25T01:39:01.985Z,1.35
2019-03-25T01:40:02.390Z,1.60
2019-03-25T01:41:02.318Z,1.15
2019-03-25T01:42:02.914Z,1.15
2019-03-25T01:43:03.023Z,0.84
2019-03-25T01:44:03.147Z,1.03
2019-03-25T01:45:03.552Z,0.80
2019-03-25T01:46:04.168Z,0.94
2019-03-25T01:47:03.820Z,1.79
2019-03-25T01:48:04.387Z,1.13
2019-03-25T01:49:04.507Z,0.93
2019-03-25T01:50:04.400Z,1.04
2019-03-25T01:51:05.022Z,1.25
2019-03-25T01:52:05.131Z,0.86
2019-03-25T01:53:04.957Z,0.39
2019-03-25T01:54:05.286Z,1.94
2019-03-25T01:55:13.262Z,1.25
2019-03-25T01:56:06.182Z,1.89
2019-03-25T01:57:06.078Z,1.63
2019-03-25T01:58:06.504Z,1.43
2019-03-25T01:59:06.914Z,1.45
2019-03-25T02:00:07.352Z,1.63
2019-03-25T02:01:07.848Z,0.69
2019-03-25T02:02:08.379Z,0.52
2019-03-25T02:03:08.168Z,0.82
2019-03-25T02:04:08.499Z,0.52
2019-03-25T02:05:09.018Z,1.04
2019-03-25T02:06:09.010Z,1.80
2019-03-25T02:07:09.453Z,1.53
2019-03-25T02:08:09.914Z,1.11
2019-03-25T02:09:10.462Z,1.54
2019-03-25T02:10:10.173Z,2.18
2019-03-25T02:11:10.678Z,1.11
2019-03-25T02:12:10.440Z,2.24
2019-03-25T02:13:10.632Z,3.24
2019-03-25T02:14:11.115Z,1.04
2019-03-25T02:15:11.542Z,0.90
2019-03-25T02:16:11.738Z,1.28
2019-03-25T02:17:11.439Z,1.41
2019-03-25T02:18:11.967Z,1.39
2019-03-25T02:19:12.064Z,1.41
2019-03-25T02:20:11.880Z,2.79
2019-03-25T02:21:12.291Z,1.21
2019-03-25T02:22:12.799Z,2.69
2019-03-25T02:23:12.802Z,1.21
2019-03-25T02:24:13.020Z,1.60
2019-03-25T02:25:24.560Z,1.90
2019-03-25T02:26:13.616Z,0.76
2019-03-25T02:27:13.649Z,0.70
2019-03-25T02:28:13.348Z,0.73
2019-03-25T02:29:13.781Z,1.24
2019-03-25T02:30:14.300Z,1.13
2019-03-25T02:31:14.195Z,1.10
2019-03-25T02:32:14.615Z,0.86
2019-03-25T02:33:15.286Z,0.81
2019-03-25T02:35:15.051Z,1.40
2019-03-25T02:36:15.159Z,1.11
2019-03-25T02:37:15.460Z,1.04
2019-03-25T02:38:15.962Z,3.02
2019-03-25T02:39:16.288Z,5.10
2019-03-25T02:40:16.293Z,2.89
2019-03-25T02:41:18.849Z,2.45
2019-03-25T02:42:16.821Z,3.29
2019-03-25T02:43:17.034Z,2.91
2019-03-25T02:44:17.139Z,2.66
2019-03-25T02:45:17.765Z,2.11
2019-03-25T02:46:17.675Z,1.83
2019-03-25T02:47:18.188Z,2.10
2019-03-25T02:48:18.291Z,0.75
2019-03-25T02:49:18.315Z,1.59
2019-03-25T02:50:18.205Z,2.22
2019-03-25T02:51:18.742Z,1.21
2019-03-25T02:52:18.843Z,1.62
2019-03-25T02:53:18.633Z,1.42
2019-03-25T02:54:19.201Z,1.35
2019-03-25T02:55:19.372Z,1.28
2019-03-25T02:56:19.277Z,0.99
2019-03-25T02:57:19.087Z,2.40
2019-03-25T02:58:19.476Z,0.88
2019-03-25T02:59:19.923Z,0.69
2019-03-25T03:00:20.115Z,2.24
2019-03-25T03:01:20.630Z,1.13
2019-03-25T03:02:20.344Z,1.51
2019-03-25T03:03:20.688Z,2.24
2019-03-25T03:04:20.967Z,1.45
2019-03-25T03:05:21.512Z,1.49
2019-03-25T03:06:21.381Z,1.81
2019-03-25T03:07:21.693Z,1.02
2019-03-25T03:08:22.010Z,0.97
2019-03-25T03:09:22.429Z,1.49
2019-03-25T03:10:22.742Z,2.13
2019-03-25T03:11:23.152Z,2.50
2019-03-25T03:12:23.260Z,1.88
2019-03-25T03:13:23.370Z,0.76
2019-03-25T03:14:23.584Z,1.52
2019-03-25T03:15:24.118Z,1.22
2019-03-25T03:16:24.047Z,2.50
2019-03-25T03:17:24.738Z,1.46
2019-03-25T03:18:24.854Z,0.93
2019-03-25T03:19:24.965Z,1.35
2019-03-25T03:20:24.808Z,1.06
2019-03-25T03:21:25.374Z,1.00
2019-03-25T03:22:25.374Z,0.73
2019-03-25T03:23:25.586Z,0.73
2019-03-25T03:24:25.821Z,1.42
2019-03-25T03:25:26.427Z,0.63
2019-03-25T03:26:26.391Z,0.96
2019-03-25T03:27:29.742Z,1.07
2019-03-25T03:28:26.855Z,0.24
2019-03-25T03:29:27.063Z,0.31
2019-03-25T03:30:27.205Z,0.00
2019-03-25T03:31:27.702Z,0.00
2019-03-25T03:32:28.209Z,0.38
2019-03-25T03:33:28.373Z,0.49
2019-03-25T03:34:28.220Z,0.69
2019-03-25T03:35:28.649Z,0.59
2019-03-25T03:36:29.154Z,1.29
2019-03-25T03:37:29.060Z,1.10
2019-03-25T03:38:29.065Z,0.74
2019-03-25T03:39:29.483Z,1.43
2019-03-25T03:40:29.601Z,1.60
2019-03-25T03:41:29.807Z,0.70
2019-03-25T03:42:30.329Z,1.14
2019-03-25T03:43:30.126Z,0.66
2019-03-25T03:44:30.540Z,0.86
2019-03-25T03:45:30.657Z,1.14
2019-03-25T03:46:31.166Z,0.83
2019-03-25T03:47:31.685Z,1.13
2019-03-25T03:48:31.694Z,2.10
2019-03-25T03:49:32.208Z,1.67
2019-03-25T03:50:32.230Z,1.47
2019-03-25T03:51:32.434Z,0.32
2019-03-25T03:52:32.434Z,0.24
2019-03-25T03:53:32.850Z,0.42
2019-03-25T03:54:32.754Z,0.64
2019-03-25T03:55:33.381Z,0.70
2019-03-25T03:56:33.589Z,0.66
2019-03-25T03:57:33.594Z,2.34
2019-03-25T03:58:33.724Z,0.99
2019-03-25T03:59:34.331Z,0.58
2019-03-25T04:00:34.242Z,0.48
2019-03-25T04:01:34.744Z,0.18
2019-03-25T04:02:34.546Z,1.06
2019-03-25T04:03:34.963Z,1.28
2019-03-25T04:04:35.172Z,1.78
2019-03-25T04:05:35.394Z,1.54
2019-03-25T04:06:35.709Z,2.15
2019-03-25T04:07:36.140Z,2.33
2019-03-25T04:08:36.332Z,2.02
2019-03-25T04:09:36.683Z,2.32
2019-03-25T04:10:37.165Z,2.96
2019-03-25T04:11:37.271Z,2.15
2019-03-25T04:12:36.966Z,1.24
2019-03-25T04:13:37.385Z,1.35
2019-03-25T04:14:37.798Z,1.05
2019-03-25T04:15:38.452Z,2.23
2019-03-25T04:16:38.431Z,1.49
2019-03-25T04:17:38.973Z,1.75
2019-03-25T04:18:38.953Z,2.27
2019-03-25T04:19:39.475Z,1.91
2019-03-25T04:20:39.382Z,2.12
2019-03-25T04:21:39.791Z,2.10
2019-03-25T04:22:40.417Z,3.00
2019-03-25T04:23:40.419Z,1.18
2019-03-25T04:24:40.428Z,2.24
2019-03-25T04:25:40.239Z,1.83
2019-03-25T04:26:40.851Z,1.94
2019-03-25T04:27:40.967Z,2.47
2019-03-25T04:28:41.066Z,2.28
2019-03-25T04:29:41.076Z,1.61
2019-03-25T04:30:40.860Z,1.39
2019-03-25T04:31:41.095Z,1.38
2019-03-25T04:32:41.502Z,1.11
2019-03-25T04:33:41.615Z,1.77
2019-03-25T04:34:42.093Z,1.62
2019-03-25T04:35:42.658Z,3.07
2019-03-25T04:36:42.764Z,2.18
2019-03-25T04:37:42.659Z,1.86
2019-03-25T04:38:43.082Z,2.20
2019-03-25T04:39:43.658Z,1.44
2019-03-25T04:40:43.309Z,0.75
2019-03-25T04:41:43.607Z,0.82
2019-03-25T04:42:43.822Z,1.95
2019-03-25T04:43:44.135Z,1.28
2019-03-25T04:44:44.552Z,1.53
2019-03-25T04:45:45.186Z,2.69
2019-03-25T04:46:45.283Z,2.51
2019-03-25T04:47:45.386Z,2.01
2019-03-25T04:48:45.495Z,1.38
2019-03-25T04:49:45.309Z,2.62
2019-03-25T04:50:45.824Z,2.79
2019-03-25T04:51:46.336Z,2.83
2019-03-25T04:52:46.242Z,2.13
2019-03-25T04:53:46.761Z,2.38
2019-03-25T04:54:46.868Z,1.97
2019-03-25T04:55:46.676Z,1.63
2019-03-25T04:56:46.881Z,1.46
2019-03-25T04:57:47.400Z,1.73
2019-03-25T04:58:47.405Z,1.43
2019-03-25T04:59:47.725Z,2.59
2019-03-25T05:00:47.837Z,2.63
2019-03-25T05:01:48.247Z,1.97
2019-03-25T05:02:48.822Z,1.99
2019-03-25T05:03:48.772Z,2.36
2019-03-25T05:04:49.085Z,2.11
2019-03-25T05:05:49.407Z,1.92
2019-03-25T05:06:49.532Z,2.50
2019-03-25T05:07:49.923Z,2.24
2019-03-25T05:08:50.440Z,2.66
2019-03-25T05:09:50.859Z,1.97
2019-03-25T05:10:50.975Z,1.92
2019-03-25T05:11:51.383Z,1.73
2019-03-25T05:12:51.900Z,1.04
2019-03-25T05:13:51.909Z,2.75
2019-03-25T05:14:52.029Z,3.50
2019-03-25T05:15:52.030Z,3.45
2019-03-25T05:16:52.095Z,1.76
2019-03-25T05:17:51.828Z,1.28
2019-03-25T05:18:52.346Z,1.11
2019-03-25T05:19:52.254Z,1.26
2019-03-25T05:20:52.664Z,1.71
2019-03-25T05:21:52.983Z,1.89
2019-03-25T05:22:53.503Z,2.65
2019-03-25T05:23:53.612Z,2.32
2019-03-25T05:24:54.233Z,1.27
2019-03-25T05:26:54.386Z,1.24
2019-03-25T05:27:54.272Z,0.77
2019-03-25T05:28:54.269Z,1.24
2019-03-25T05:29:54.468Z,1.11
2019-03-25T05:31:54.793Z,1.67
2019-03-25T05:32:55.202Z,3.02
2019-03-25T05:33:55.933Z,1.49
2019-03-25T05:34:55.764Z,1.45
2019-03-25T05:35:56.031Z,1.84
2019-03-25T05:36:56.372Z,0.98
2019-03-25T05:37:56.672Z,1.85
2019-03-25T05:38:57.188Z,2.81
2019-03-25T05:39:57.197Z,0.95
2019-03-25T05:40:57.722Z,0.78
2019-03-25T05:41:57.719Z,1.21
2019-03-25T05:42:57.625Z,1.64
2019-03-25T05:43:57.739Z,1.18
2019-03-25T05:44:58.151Z,0.45
2019-03-25T05:45:59.103Z,2.10
2019-03-25T05:46:58.779Z,2.71
2019-03-25T05:47:58.989Z,2.06
2019-03-25T05:48:59.407Z,3.42
2019-03-25T05:49:59.513Z,1.02
2019-03-25T05:51:00.047Z,1.44
2019-03-25T05:52:00.140Z,1.38
2019-03-25T05:52:59.947Z,1.76
2019-03-25T05:54:00.060Z,2.36
2019-03-25T05:55:00.470Z,1.82
2019-03-25T05:56:01.000Z,1.90
2019-03-25T05:57:02.668Z,1.32
2019-03-25T05:58:01.511Z,2.24
2019-03-25T05:59:01.930Z,2.74
2019-03-25T06:00:02.445Z,2.35
2019-03-25T06:01:02.561Z,2.00
2019-03-25T06:02:03.198Z,1.68
2019-03-25T06:03:03.186Z,0.97
2019-03-25T06:04:03.703Z,1.13
2019-03-25T06:05:03.607Z,1.06
2019-03-25T06:06:03.629Z,1.76
2019-03-25T06:07:04.130Z,1.84
2019-03-25T06:08:04.548Z,1.60
2019-03-25T06:09:04.965Z,1.71
2019-03-25T06:10:05.410Z,0.79
2019-03-25T06:11:05.704Z,0.64
2019-03-25T06:12:06.027Z,1.69
2019-03-25T06:14:06.536Z,0.42
2019-03-25T06:16:07.072Z,1.67
2019-03-25T06:17:07.068Z,2.06
2019-03-25T06:18:07.479Z,2.97
2019-03-25T06:19:07.995Z,2.47
2019-03-25T06:20:07.808Z,2.30
2019-03-25T06:21:08.225Z,1.03
2019-03-25T06:22:08.633Z,2.71
2019-03-25T06:23:09.142Z,2.29
2019-03-25T06:24:09.668Z,1.79
2019-03-25T06:25:09.572Z,1.26
2019-03-25T06:26:09.937Z,4.63
2019-03-25T06:27:14.371Z,2.89
2019-03-25T06:28:10.924Z,3.11
2019-03-25T06:29:10.931Z,3.37
2019-03-25T06:30:10.735Z,3.19
2019-03-25T06:31:11.258Z,4.06
2019-03-25T06:32:11.771Z,2.44
2019-03-25T06:33:12.625Z,4.56
2019-03-25T06:34:11.784Z,3.30
2019-03-25T06:35:12.205Z,1.86
2019-03-25T06:36:12.419Z,4.23
2019-03-25T06:37:12.824Z,3.78
2019-03-25T06:38:13.450Z,2.83
2019-03-25T06:39:13.473Z,1.79
2019-03-25T06:40:13.184Z,2.87
2019-03-25T06:41:13.684Z,4.07
2019-03-25T06:42:14.093Z,6.34
2019-03-25T06:43:14.502Z,4.61
2019-03-25T06:44:14.920Z,4.15
2019-03-25T06:45:15.028Z,2.67
2019-03-25T06:46:15.454Z,3.24
2019-03-25T06:47:16.065Z,2.86
2019-03-25T06:48:15.970Z,3.11
2019-03-25T06:50:16.433Z,3.45
2019-03-25T06:51:17.020Z,3.39
2019-03-25T06:52:17.125Z,4.23
2019-03-25T06:53:17.140Z,4.49
2019-03-25T06:54:17.752Z,3.17
2019-03-25T06:55:17.387Z,3.61
2019-03-25T06:56:17.733Z,3.33
2019-03-25T06:57:25.495Z,2.87
2019-03-25T06:58:18.187Z,5.65
2019-03-25T06:59:18.297Z,1.49
2019-03-25T07:00:18.811Z,3.85
2019-03-25T07:01:18.839Z,3.55
2019-03-25T07:02:19.346Z,1.61
2019-03-25T07:03:19.462Z,2.63
2019-03-25T07:04:19.349Z,2.10
2019-03-25T07:05:19.665Z,1.74
2019-03-25T07:06:19.786Z,3.30
2019-03-25T07:07:20.201Z,5.47
2019-03-25T07:08:20.203Z,5.09
2019-03-25T07:09:20.985Z,2.26
2019-03-25T07:10:21.541Z,2.51
2019-03-25T07:11:21.862Z,4.90
2019-03-25T07:12:21.866Z,4.73
2019-03-25T07:13:22.381Z,2.85
2019-03-25T07:14:22.389Z,2.80
2019-03-25T07:15:22.292Z,3.32
2019-03-25T07:16:22.169Z,5.96
2019-03-25T07:17:22.718Z,6.54
2019-03-25T07:18:22.420Z,5.65
2019-03-25T07:19:22.826Z,2.98
2019-03-25T07:20:22.940Z,4.14
2019-03-25T07:21:23.163Z,2.79
2019-03-25T07:22:23.564Z,3.78
2019-03-25T07:23:23.877Z,2.75
2019-03-25T07:24:23.889Z,2.99
2019-03-25T07:25:24.301Z,3.84
2019-03-25T07:26:24.625Z,1.32
2019-03-25T07:27:36.036Z,3.66
2019-03-25T07:28:25.444Z,1.66
2019-03-25T07:29:25.348Z,1.86
2019-03-25T07:30:25.665Z,3.18
2019-03-25T07:31:26.196Z,6.94
2019-03-25T07:32:26.193Z,6.59
2019-03-25T07:33:26.712Z,3.25
2019-03-25T07:34:26.506Z,0.54
2019-03-25T07:35:27.051Z,1.78
2019-03-25T07:36:27.048Z,4.66
2019-03-25T07:37:26.937Z,2.75
2019-03-25T07:38:27.150Z,1.56
2019-03-25T07:39:27.670Z,2.07
2019-03-25T07:40:27.676Z,3.41
2019-03-25T07:41:28.102Z,2.57
2019-03-25T07:42:28.710Z,1.71
2019-03-25T07:43:28.616Z,3.64
2019-03-25T07:44:29.035Z,1.97
2019-03-25T07:45:29.297Z,3.45
2019-03-25T07:46:29.770Z,2.94
2019-03-25T07:47:29.462Z,1.92
2019-03-25T07:48:29.979Z,1.39
2019-03-25T07:49:30.091Z,3.71
2019-03-25T07:50:29.795Z,3.75
2019-03-25T07:51:30.016Z,5.13
2019-03-25T07:52:30.629Z,2.49
2019-03-25T07:53:30.730Z,2.42
2019-03-25T07:54:30.638Z,2.54
2019-03-25T07:55:31.156Z,2.65
2019-03-25T07:56:30.860Z,2.64
2019-03-25T07:57:31.380Z,3.74
2019-03-25T07:58:31.491Z,4.70
2019-03-25T07:59:31.385Z,4.18
2019-03-25T08:00:31.801Z,4.81
2019-03-25T08:01:32.222Z,2.29
2019-03-25T08:02:32.735Z,2.16
2019-03-25T08:03:32.743Z,3.64
2019-03-25T08:04:33.363Z,3.27
2019-03-25T08:05:33.370Z,2.65
2019-03-25T08:06:33.303Z,2.63
2019-03-25T08:07:33.487Z,4.91
2019-03-25T08:08:34.019Z,2.92
2019-03-25T08:09:33.749Z,3.24
2019-03-25T08:10:33.921Z,4.55
2019-03-25T08:11:34.367Z,4.19
2019-03-25T08:12:34.848Z,2.64
2019-03-25T08:13:34.586Z,3.75
2019-03-25T08:14:34.992Z,2.67
2019-03-25T08:15:35.384Z,5.54
2019-03-25T08:16:35.796Z,3.34
2019-03-25T08:17:36.119Z,3.73
2019-03-25T08:18:36.626Z,3.12
2019-03-25T08:19:36.531Z,0.73
2019-03-25T08:20:36.542Z,3.17
2019-03-25T08:21:37.567Z,2.30
2019-03-25T08:22:37.483Z,2.17
2019-03-25T08:23:37.890Z,2.99
2019-03-25T08:24:38.306Z,3.43
2019-03-25T08:25:38.516Z,3.84
2019-03-25T08:26:39.041Z,1.93
2019-03-25T08:27:38.999Z,1.62
2019-03-25T08:28:39.458Z,5.15
2019-03-25T08:29:39.746Z,1.93
2019-03-25T08:30:40.063Z,1.29
2019-03-25T08:31:40.397Z,1.62
2019-03-25T08:32:40.823Z,2.02
2019-03-25T08:33:41.233Z,3.48
2019-03-25T08:34:41.853Z,2.34
2019-03-25T08:35:41.861Z,2.71
2019-03-25T08:36:41.866Z,1.64
2019-03-25T08:37:42.395Z,3.91
2019-03-25T08:38:42.491Z,4.09
2019-03-25T08:39:42.086Z,3.28
2019-03-25T08:40:42.506Z,1.48
2019-03-25T08:41:42.820Z,2.12
2019-03-25T08:42:43.350Z,2.85
2019-03-25T08:43:43.247Z,3.84
2019-03-25T08:44:43.761Z,4.02
2019-03-25T08:45:43.970Z,3.57
2019-03-25T08:46:44.286Z,1.67
2019-03-25T08:47:44.819Z,2.15
2019-03-25T08:48:44.914Z,2.60
2019-03-25T08:49:44.560Z,1.55
2019-03-25T08:50:44.926Z,2.52
2019-03-25T08:51:45.448Z,1.92
2019-03-25T08:52:45.258Z,1.27
2019-03-25T08:53:45.766Z,2.85
2019-03-25T08:54:46.205Z,1.67
2019-03-25T08:55:46.801Z,3.16
2019-03-25T08:56:46.808Z,2.91
2019-03-25T08:57:47.026Z,4.23
2019-03-25T08:58:47.130Z,2.41
2019-03-25T08:59:47.242Z,3.95
2019-03-25T09:00:47.352Z,4.57
2019-03-25T09:01:47.457Z,3.83
2019-03-25T09:02:47.471Z,3.70
2019-03-25T09:03:47.475Z,2.00
2019-03-25T09:04:47.885Z,3.85
2019-03-25T09:05:48.199Z,2.93
2019-03-25T09:06:48.718Z,3.60
2019-03-25T09:07:48.710Z,5.72
2019-03-25T09:08:49.347Z,4.14
2019-03-25T09:09:49.044Z,3.52
2019-03-25T09:10:49.563Z,4.29
2019-03-25T09:11:51.563Z,3.88
2019-03-25T09:12:49.890Z,4.06
2019-03-25T09:13:49.893Z,1.81
2019-03-25T09:14:50.411Z,3.72
2019-03-25T09:15:50.208Z,4.93
2019-03-25T09:16:50.754Z,7.54
2019-03-25T09:17:51.259Z,3.58
2019-03-25T09:18:51.359Z,4.59
2019-03-25T09:19:51.361Z,4.34
2019-03-25T09:20:51.574Z,6.25
2019-03-25T09:21:51.994Z,4.35
2019-03-25T09:22:52.081Z,4.28
2019-03-25T09:23:52.273Z,4.42
2019-03-25T09:24:52.522Z,4.74
2019-03-25T09:25:52.754Z,5.35
2019-03-25T09:26:53.287Z,5.18
2019-03-25T09:27:53.066Z,3.97
2019-03-25T09:28:53.571Z,4.66
2019-03-25T09:29:53.988Z,4.41
2019-03-25T09:30:54.203Z,3.11
2019-03-25T09:31:54.009Z,4.33
2019-03-25T09:32:55.001Z,9.98
2019-03-25T09:33:54.937Z,4.93
2019-03-25T09:34:55.360Z,4.51
2019-03-25T09:35:55.977Z,4.04
2019-03-25T09:36:56.392Z,6.45
2019-03-25T09:37:57.124Z,3.32
2019-03-25T09:38:57.080Z,3.70
2019-03-25T09:39:57.291Z,3.14
2019-03-25T09:40:57.752Z,4.81
2019-03-25T09:41:58.139Z,4.29
2019-03-25T09:42:58.711Z,4.70
2019-03-25T09:43:58.896Z,5.08
2019-03-25T09:44:59.004Z,6.57
2019-03-25T09:45:58.908Z,5.27
2019-03-25T09:46:59.529Z,7.09
2019-03-25T09:47:59.647Z,5.51
2019-03-25T09:48:59.445Z,5.50
2019-03-25T09:50:05.753Z,4.13
2019-03-25T09:51:00.481Z,4.99
2019-03-25T09:52:00.700Z,3.54
2019-03-25T09:53:00.805Z,2.26
2019-03-25T09:54:01.316Z,3.38
2019-03-25T09:55:01.541Z,5.13
2019-03-25T09:56:01.531Z,4.62
2019-03-25T09:57:02.274Z,3.14
2019-03-25T09:58:02.372Z,5.32
2019-03-25T09:59:02.474Z,3.95
2019-03-25T10:00:02.583Z,3.78
2019-03-25T10:01:02.567Z,3.56
2019-03-25T10:02:02.810Z,5.81
2019-03-25T10:03:03.221Z,6.03
2019-03-25T10:04:03.641Z,5.15
2019-03-25T10:05:06.721Z,4.04
2019-03-25T10:06:04.260Z,6.20
2019-03-25T10:07:04.276Z,3.78
2019-03-25T10:08:04.890Z,3.70
2019-03-25T10:09:04.941Z,2.82
2019-03-25T10:10:05.033Z,3.99
2019-03-25T10:11:04.804Z,6.55
2019-03-25T10:12:05.130Z,6.11
2019-03-25T10:13:05.634Z,4.95
2019-03-25T10:14:06.019Z,5.02
2019-03-25T10:15:06.677Z,4.01
2019-03-25T10:16:06.262Z,2.35
2019-03-25T10:17:06.796Z,3.56
2019-03-25T10:18:06.803Z,3.90
2019-03-25T10:19:06.915Z,2.79
2019-03-25T10:20:06.810Z,4.88
2019-03-25T10:21:07.536Z,5.54
2019-03-25T10:22:08.059Z,5.19
2019-03-25T10:23:07.581Z,5.83
2019-03-25T10:25:08.276Z,5.40
2019-03-25T10:26:08.489Z,2.60
2019-03-25T10:27:08.605Z,3.18
2019-03-25T10:28:08.605Z,5.19
2019-03-25T10:29:09.138Z,4.49
2019-03-25T10:31:08.832Z,4.83
2019-03-25T10:32:08.958Z,6.61
2019-03-25T10:33:09.411Z,5.20
2019-03-25T10:34:09.672Z,7.53
2019-03-25T10:35:10.087Z,4.37
2019-03-25T10:36:10.595Z,4.77
2019-03-25T10:37:10.514Z,5.56
2019-03-25T10:38:19.603Z,3.22
2019-03-25T10:39:11.027Z,3.49
2019-03-25T10:40:11.444Z,3.86
2019-03-25T10:41:11.465Z,3.05
2019-03-25T10:42:11.476Z,6.22
2019-03-25T10:43:11.362Z,4.31
2019-03-25T10:44:11.780Z,4.94
2019-03-25T10:45:12.428Z,4.78
2019-03-25T10:46:12.431Z,3.02
2019-03-25T10:47:13.027Z,5.37
2019-03-25T10:48:12.972Z,2.78
2019-03-25T10:49:16.046Z,4.03
2019-03-25T10:50:16.424Z,4.96
2019-03-25T10:51:13.874Z,3.53
2019-03-25T10:52:13.898Z,3.58
2019-03-25T10:53:14.201Z,3.27
2019-03-25T10:54:14.710Z,3.46
2019-03-25T10:55:18.401Z,3.26
2019-03-25T10:56:15.342Z,5.37
2019-03-25T10:57:15.956Z,4.70
2019-03-25T10:58:15.998Z,2.30
2019-03-25T10:59:15.790Z,2.63
2019-03-25T11:00:16.253Z,1.99
2019-03-25T11:01:16.600Z,4.42
2019-03-25T11:02:17.118Z,4.40
2019-03-25T11:03:17.749Z,4.06
2019-03-25T11:04:17.745Z,2.85
2019-03-25T11:05:17.858Z,4.30
2019-03-25T11:06:18.269Z,4.65
2019-03-25T11:07:18.768Z,4.28
2019-03-25T11:08:19.116Z,2.73
2019-03-25T11:09:19.368Z,3.07
2019-03-25T11:10:19.731Z,2.32
2019-03-25T11:11:19.950Z,4.00
2019-03-25T11:12:20.053Z,2.18
2019-03-25T11:13:20.475Z,4.57
2019-03-25T11:14:21.092Z,4.30
2019-03-25T11:15:20.695Z,2.94
2019-03-25T11:16:21.110Z,4.72
2019-03-25T11:17:21.334Z,3.64
2019-03-25T11:18:21.853Z,5.33
2019-03-25T11:19:21.937Z,5.31
2019-03-25T11:20:21.533Z,4.58
2019-03-25T11:21:21.864Z,4.24
2019-03-25T11:22:22.368Z,4.14
2019-03-25T11:23:22.580Z,3.05
2019-03-25T11:24:23.152Z,2.17
2019-03-25T11:25:23.207Z,2.26
2019-03-25T11:26:22.904Z,3.79
2019-03-25T11:27:23.322Z,3.28
2019-03-25T11:28:23.542Z,2.29
2019-03-25T11:29:23.959Z,2.70
2019-03-25T11:30:24.263Z,5.99
2019-03-25T11:31:24.575Z,3.97
2019-03-25T11:32:24.279Z,4.01
2019-03-25T11:33:24.940Z,3.81
2019-03-25T11:34:25.182Z,4.30
2019-03-25T11:35:25.116Z,6.56
2019-03-25T11:36:25.449Z,4.92
2019-03-25T11:37:25.948Z,3.62
2019-03-25T11:38:25.877Z,4.52
2019-03-25T11:39:26.176Z,4.48
2019-03-25T11:40:26.481Z,6.90
2019-03-25T11:41:27.343Z,7.64
2019-03-25T11:42:27.332Z,5.49
2019-03-25T11:43:27.343Z,6.60
2019-03-25T11:44:29.064Z,6.47
2019-03-25T11:45:27.229Z,6.82
2019-03-25T11:46:27.747Z,7.84
2019-03-25T11:47:27.648Z,9.32
2019-03-25T11:48:28.269Z,5.47
2019-03-25T11:49:28.184Z,5.93
2019-03-25T11:50:28.535Z,7.26
2019-03-25T11:51:29.114Z,5.08
2019-03-25T11:52:29.649Z,6.18
2019-03-25T11:53:29.329Z,5.94
2019-03-25T11:54:29.445Z,4.59
2019-03-25T11:55:29.161Z,3.52
2019-03-25T11:56:29.757Z,5.07
2019-03-25T11:57:29.461Z,7.81
2019-03-25T11:58:30.079Z,4.47
2019-03-25T11:59:30.428Z,3.23
2019-03-25T12:00:30.427Z,5.87
2019-03-25T12:01:30.408Z,3.29
2019-03-25T12:02:30.822Z,6.96
2019-03-25T12:03:31.344Z,7.05
2019-03-25T12:04:31.256Z,5.65
2019-03-25T12:05:31.556Z,5.30
2019-03-25T12:06:32.041Z,3.69
2019-03-25T12:07:32.415Z,4.62
2019-03-25T12:08:32.614Z,3.97
2019-03-25T12:09:32.821Z,2.21
2019-03-25T12:10:33.436Z,2.73
2019-03-25T12:11:33.442Z,5.10
2019-03-25T12:12:33.557Z,3.03
2019-03-25T12:13:33.559Z,3.44
2019-03-25T12:14:33.564Z,3.75
2019-03-25T12:15:34.077Z,4.14
2019-03-25T12:16:34.244Z,3.01
2019-03-25T12:17:34.094Z,4.07
2019-03-25T12:18:34.305Z,3.52
2019-03-25T12:19:34.513Z,2.09
2019-03-25T12:20:35.038Z,4.53
2019-03-25T12:21:34.984Z,3.45
2019-03-25T12:22:35.497Z,3.91
2019-03-25T12:23:35.978Z,4.82
2019-03-25T12:24:35.983Z,3.68
2019-03-25T12:25:36.368Z,2.22
2019-03-25T12:26:40.035Z,1.90
2019-03-25T12:27:37.029Z,3.04
2019-03-25T12:28:37.544Z,2.54
2019-03-25T12:29:37.243Z,1.72
2019-03-25T12:30:37.644Z,1.76
2019-03-25T12:31:37.978Z,2.43
2019-03-25T12:32:38.286Z,4.82
2019-03-25T12:33:38.912Z,5.11
2019-03-25T12:34:38.918Z,2.52
2019-03-25T12:35:39.133Z,2.62
2019-03-25T12:36:39.652Z,1.32
2019-03-25T12:37:39.649Z,1.96
2019-03-25T12:38:39.763Z,5.38
2019-03-25T12:39:39.463Z,3.94
2019-03-25T12:40:40.094Z,6.51
2019-03-25T12:41:40.192Z,7.46
2019-03-25T12:42:40.749Z,3.79
2019-03-25T12:43:40.761Z,8.03
2019-03-25T12:44:41.235Z,4.77
2019-03-25T12:45:41.578Z,6.28
2019-03-25T12:46:42.062Z,4.67
2019-03-25T12:47:42.345Z,4.73
2019-03-25T12:48:42.899Z,3.32
2019-03-25T12:50:42.714Z,5.35
2019-03-25T12:51:42.720Z,3.62
2019-03-25T12:52:43.537Z,2.21
2019-03-25T12:53:43.779Z,4.21
2019-03-25T12:54:44.371Z,2.64
2019-03-25T12:55:44.583Z,5.09
2019-03-25T12:56:44.381Z,6.15
2019-03-25T12:57:44.755Z,5.28
2019-03-25T12:58:45.111Z,5.95
2019-03-25T12:59:45.324Z,4.53
2019-03-25T13:00:46.002Z,3.78
2019-03-25T13:01:52.807Z,5.48
2019-03-25T13:02:46.402Z,3.11
2019-03-25T13:03:46.409Z,4.80
2019-03-25T13:04:46.900Z,3.70
2019-03-25T13:05:47.004Z,7.28
2019-03-25T13:06:46.901Z,4.02
2019-03-25T13:07:47.219Z,6.87
2019-03-25T13:08:47.822Z,4.71
2019-03-25T13:09:47.849Z,6.09
2019-03-25T13:10:47.956Z,6.56
2019-03-25T13:11:48.483Z,5.32
2019-03-25T13:12:48.583Z,4.40
2019-03-25T13:13:48.385Z,4.91
2019-03-25T13:14:48.805Z,5.36
2019-03-25T13:15:49.015Z,5.62
2019-03-25T13:16:49.440Z,5.71
2019-03-25T13:17:50.382Z,5.76
2019-03-25T13:18:50.260Z,6.64
2019-03-25T13:19:50.475Z,5.04
2019-03-25T13:20:50.888Z,4.61
2019-03-25T13:21:51.416Z,2.23
2019-03-25T13:22:51.417Z,2.70
2019-03-25T13:24:51.530Z,3.73
2019-03-25T13:25:51.337Z,5.16
2019-03-25T13:26:51.564Z,4.09
2019-03-25T13:27:52.060Z,3.21
2019-03-25T13:29:01.543Z,4.71
2019-03-25T13:29:53.076Z,5.74
2019-03-25T13:30:52.856Z,3.91
2019-03-25T13:31:53.223Z,3.73
2019-03-25T13:32:53.736Z,6.26